Delta Billie — WDE8059 — position and weather

sailwx.info

Track history (hours):
 
Tides and Currents Weather Stations Pressure Air Temp Water Temp Dewpoint Dewpoint Depression Visibility Wind Speed Wind Dir Waves Ship Positions

Delta Billie

Owner: Baydelta Maritime, San Francicso, CA. More information available from US FCC via Universal Licensing System and Coast Guard Vessel Documentation Center.

Last reported at 2015-Jul-03 04:33 UTC. Time now 2015-Jul-03 06:16 UTC.
Position N 37°48' W 122°24'.

Length 30 m; draft 5.5 m.

Type: Towing. MMSI: 367401030.

Date/timePositionNaut miles runAvg speedWind from/ knotsBaromVisibWave heightAir tempDewpointWater temp
2015-Jul-03 04:33N 37°48' W 122°24'0 0.0
2015-Jul-03 03:33N 37°48' W 122°24'0 0.0
2015-Jul-03 02:33N 37°48' W 122°24'0 0.0
2015-Jul-03 01:33N 37°48' W 122°24'0 0.0
2015-Jul-03 00:33N 37°48' W 122°24'0 0.0
2015-Jul-02 23:33N 37°48' W 122°24'3 3.2
2015-Jul-02 22:33N 37°46' W 122°21'0 0.3
2015-Jul-02 21:33N 37°46' W 122°20'3 2.6
2015-Jul-02 20:33N 37°48' W 122°22'9 9.3
2015-Jul-02 19:33N 37°57' W 122°26'9 8.2
2015-Jul-02 18:31N 38°03' W 122°18'8 2.0
2015-Jul-02 14:28N 38°02' W 122°08'0 0.1
2015-Jul-02 13:28N 38°02' W 122°08'5 1.2
2015-Jul-02 09:33N 38°04' W 122°14'1110.8
2015-Jul-02 08:33N 37°59' W 122°26'4 3.5
2015-Jul-02 07:33N 37°55' W 122°25'9 8.8
2015-Jul-02 06:33N 38°03' W 122°19'6 1.8
2015-Jul-02 03:05N 38°03' W 122°11'3 5.6
2015-Jul-02 02:33N 38°04' W 122°15'2 1.6
2015-Jul-02 01:33N 38°03' W 122°13'4 0.6
2015-Jul-01 19:33N 38°02' W 122°08'8 8.5
2015-Jul-01 18:33N 38°03' W 122°19'1110.7
2015-Jul-01 17:33N 37°55' W 122°27'6 5.8
2015-Jul-01 16:33N 37°49' W 122°27'3 2.5
2015-Jul-01 15:33N 37°48' W 122°30'4 4.3
2015-Jul-01 14:33N 37°49' W 122°24'4 4.3
2015-Jul-01 13:33N 37°49' W 122°19'1 1.2
2015-Jul-01 12:33N 37°49' W 122°20'2 1.5
2015-Jul-01 11:33N 37°48' W 122°19'0 0.2
2015-Jul-01 10:33N 37°48' W 122°18'1 0.9
2015-Jul-01 09:33N 37°48' W 122°20'9 9.2
2015-Jul-01 08:33N 37°56' W 122°25'9 9.4
2015-Jul-01 07:33N 38°03' W 122°18'8 7.7
2015-Jul-01 06:33N 38°02' W 122°08'0 0.0
2015-Jul-01 05:32N 38°02' W 122°08'5 4.8
2015-Jul-01 04:32N 38°04' W 122°14'1111.5
2015-Jul-01 03:33N 37°57' W 122°26'2 2.1
2015-Jul-01 02:33N 37°55' W 122°25'8 7.7
2015-Jul-01 01:33N 37°49' W 122°30'1 1.2
2015-Jul-01 00:33N 37°49' W 122°29'4 3.9
2015-Jun-30 23:33N 37°48' W 122°24'0 0.0
2015-Jun-30 22:33N 37°48' W 122°24'0 0.0
2015-Jun-30 21:33N 37°48' W 122°24'0 0.0
2015-Jun-30 20:33N 37°48' W 122°24'0 0.0
2015-Jun-30 19:33N 37°48' W 122°24'0 0.0
2015-Jun-30 18:33N 37°48' W 122°24'2 1.7
2015-Jun-30 17:33N 37°49' W 122°26'5 4.5
2015-Jun-30 16:33N 37°49' W 122°31'6 6.4
2015-Jun-30 15:33N 37°49' W 122°23'3 2.8
2015-Jun-30 14:33N 37°47' W 122°21'2 1.6
2015-Jun-30 13:33N 37°48' W 122°21'0 0.2
2015-Jun-30 12:33N 37°49' W 122°20'5 4.6
2015-Jun-30 11:33N 37°44' W 122°21'1 1.2
2015-Jun-30 10:33N 37°45' W 122°21'2 1.7
2015-Jun-30 09:33N 37°47' W 122°22'9 9.5
2015-Jun-30 08:33N 37°55' W 122°27'10 9.5
2015-Jun-30 07:33N 38°03' W 122°20'6 6.3
2015-Jun-30 06:32N 38°03' W 122°12'4 4.5
2015-Jun-30 05:33N 38°03' W 122°06'5 0.4
2015-Jun-29 18:20N 38°03' W 122°12'3 1.0
2015-Jun-29 15:19N 38°02' W 122°08'0 0.0
2015-Jun-29 00:25N 38°02' W 122°08'2 0.3
2015-Jun-28 15:23N 38°03' W 122°11'9 4.8
2015-Jun-28 13:27N 38°02' W 122°22'7 8.3
2015-Jun-28 12:33N 37°54' W 122°25'6 6.5
2015-Jun-28 11:33N 37°48' W 122°24'0 0.0
2015-Jun-28 10:33N 37°48' W 122°24'0 0.0
2015-Jun-28 09:33N 37°48' W 122°24'0 0.0
2015-Jun-28 08:33N 37°48' W 122°24'0 0.0
2015-Jun-28 07:33N 37°48' W 122°24'0 0.0
2015-Jun-28 06:33N 37°48' W 122°24'4 3.8
2015-Jun-28 05:33N 37°49' W 122°29'2 2.2
2015-Jun-28 04:33N 37°49' W 122°31'4 3.6
2015-Jun-28 03:33N 37°50' W 122°27'3 3.1
2015-Jun-28 02:33N 37°53' W 122°25'4 3.7
2015-Jun-28 01:33N 37°56' W 122°27'4 3.9
2015-Jun-28 00:33N 37°60' W 122°25'5 4.7
2015-Jun-27 23:33N 38°03' W 122°20'10 0.6
2015-Jun-27 07:31N 38°03' W 122°08'0 0.0
2015-Jun-27 04:33N 38°03' W 122°08'1 0.6
2015-Jun-27 03:33N 38°02' W 122°08'4 3.6
2015-Jun-27 02:33N 38°04' W 122°12'4 3.8
2015-Jun-27 01:32N 38°03' W 122°17'7 1.0
2015-Jun-26 18:32N 38°02' W 122°08'0 0.1
2015-Jun-26 15:19N 38°03' W 122°08'1 1.6
2015-Jun-26 14:24N 38°03' W 122°06'2 1.6
2015-Jun-26 13:21N 38°02' W 122°08'1 0.1
2015-Jun-26 06:23N 38°02' W 122°09'2 0.4
2015-Jun-26 01:08N 38°03' W 122°11'910.4
2015-Jun-26 00:17N 38°02' W 122°22'6 8.9
2015-Jun-25 23:33N 37°56' W 122°25'0 0.4
2015-Jun-25 22:33N 37°55' W 122°25'6 5.7
2015-Jun-25 21:33N 37°50' W 122°28'3 2.7
2015-Jun-25 20:33N 37°49' W 122°31'6 5.7
2015-Jun-25 19:33N 37°48' W 122°24'0 0.0
2015-Jun-25 18:33N 37°48' W 122°24'0 0.0
2015-Jun-25 17:34N 37°48' W 122°24'0 0.0
2015-Jun-25 16:33N 37°48' W 122°24'0 0.0
2015-Jun-25 15:33N 37°48' W 122°24'0 0.0
2015-Jun-25 14:33N 37°48' W 122°24'3 3.3
2015-Jun-25 13:33N 37°49' W 122°20'1 0.5
2015-Jun-25 12:33N 37°49' W 122°19'4 3.8
2015-Jun-25 11:33N 37°48' W 122°24'0 0.0
2015-Jun-25 10:33N 37°48' W 122°24'0 0.0
2015-Jun-25 09:33N 37°48' W 122°24'0 0.0
2015-Jun-25 08:33N 37°48' W 122°24'0 0.0
2015-Jun-25 07:33N 37°48' W 122°24'1 0.6
2015-Jun-25 06:33N 37°49' W 122°24'11 9.9
2015-Jun-25 05:27N 37°60' W 122°25'8 9.3
2015-Jun-25 04:33N 38°04' W 122°15'6 4.2
2015-Jun-25 03:07N 38°02' W 122°08'0 0.2
2015-Jun-25 01:32N 38°02' W 122°08'0 0.2
2015-Jun-25 00:30N 38°02' W 122°08'4 2.0
2015-Jun-24 22:33N 38°04' W 122°12'9 8.7
2015-Jun-24 21:33N 38°01' W 122°23'9 8.8
2015-Jun-24 20:34N 37°53' W 122°24'4 4.4
2015-Jun-24 19:33N 37°48' W 122°24'0 0.0
2015-Jun-24 18:33N 37°48' W 122°24'0 0.0
2015-Jun-24 17:33N 37°48' W 122°24'0 0.0
2015-Jun-24 16:33N 37°48' W 122°24'0 0.0
2015-Jun-24 15:34N 37°48' W 122°24'0 0.0
2015-Jun-24 14:33N 37°48' W 122°24'0 0.0
2015-Jun-24 13:33N 37°48' W 122°24'0 0.0
2015-Jun-24 12:33N 37°48' W 122°24'4 4.3
2015-Jun-24 11:33N 37°49' W 122°29'3 2.8
2015-Jun-24 10:33N 37°51' W 122°26'5 4.4
2015-Jun-24 09:27N 37°55' W 122°25'7 7.5
2015-Jun-24 08:33N 37°49' W 122°24'1 0.5
2015-Jun-24 07:33N 37°48' W 122°24'0 0.0
2015-Jun-24 06:33N 37°48' W 122°24'0 0.0
2015-Jun-24 05:33N 37°48' W 122°24'3 3.0
2015-Jun-24 04:34N 37°51' W 122°24'4 4.4
2015-Jun-24 03:33N 37°55' W 122°22'3 2.8
2015-Jun-24 02:31N 37°56' W 122°25'8 8.4
2015-Jun-24 01:33N 38°03' W 122°20'4 3.5
2015-Jun-24 00:32N 38°03' W 122°16'0 0.3
2015-Jun-23 23:33N 38°03' W 122°16'10 9.8
2015-Jun-23 22:33N 37°57' W 122°26'9 9.5
2015-Jun-23 21:33N 37°48' W 122°24'0 0.0
2015-Jun-23 20:33N 37°48' W 122°24'0 0.0
2015-Jun-23 19:34N 37°48' W 122°24'3 7.0
2015-Jun-23 19:06N 37°49' W 122°20'  
Track history (hours):
 
Tides and Currents Weather Stations Pressure Air Temp Water Temp Dewpoint Dewpoint Depression Visibility Wind Speed Wind Dir Waves Ship Positions

Delta Billie

Owner: Baydelta Maritime, San Francicso, CA. More information available from US FCC via Universal Licensing System and Coast Guard Vessel Documentation Center.

Last reported at 2015-Jul-03 04:33 UTC. Time now 2015-Jul-03 06:16 UTC.
Position N 37°48' W 122°24'.

Length 30 m; draft 5.5 m.

Type: Towing. MMSI: 367401030.

Date/timePositionNaut miles runAvg speedWind from/ knotsBaromVisibWave heightAir tempDewpointWater temp
2015-Jul-03 04:33N 37°48' W 122°24'0 0.0
2015-Jul-03 03:33N 37°48' W 122°24'0 0.0
2015-Jul-03 02:33N 37°48' W 122°24'0 0.0
2015-Jul-03 01:33N 37°48' W 122°24'0 0.0
2015-Jul-03 00:33N 37°48' W 122°24'0 0.0
2015-Jul-02 23:33N 37°48' W 122°24'3 3.2
2015-Jul-02 22:33N 37°46' W 122°21'0 0.3
2015-Jul-02 21:33N 37°46' W 122°20'3 2.6
2015-Jul-02 20:33N 37°48' W 122°22'9 9.3
2015-Jul-02 19:33N 37°57' W 122°26'9 8.2
2015-Jul-02 18:31N 38°03' W 122°18'8 2.0
2015-Jul-02 14:28N 38°02' W 122°08'0 0.1
2015-Jul-02 13:28N 38°02' W 122°08'5 1.2
2015-Jul-02 09:33N 38°04' W 122°14'1110.8
2015-Jul-02 08:33N 37°59' W 122°26'4 3.5
2015-Jul-02 07:33N 37°55' W 122°25'9 8.8
2015-Jul-02 06:33N 38°03' W 122°19'6 1.8
2015-Jul-02 03:05N 38°03' W 122°11'3 5.6
2015-Jul-02 02:33N 38°04' W 122°15'2 1.6
2015-Jul-02 01:33N 38°03' W 122°13'4 0.6
2015-Jul-01 19:33N 38°02' W 122°08'8 8.5
2015-Jul-01 18:33N 38°03' W 122°19'1110.7
2015-Jul-01 17:33N 37°55' W 122°27'6 5.8
2015-Jul-01 16:33N 37°49' W 122°27'3 2.5
2015-Jul-01 15:33N 37°48' W 122°30'4 4.3
2015-Jul-01 14:33N 37°49' W 122°24'4 4.3
2015-Jul-01 13:33N 37°49' W 122°19'1 1.2
2015-Jul-01 12:33N 37°49' W 122°20'2 1.5
2015-Jul-01 11:33N 37°48' W 122°19'0 0.2
2015-Jul-01 10:33N 37°48' W 122°18'1 0.9
2015-Jul-01 09:33N 37°48' W 122°20'9 9.2
2015-Jul-01 08:33N 37°56' W 122°25'9 9.4
2015-Jul-01 07:33N 38°03' W 122°18'8 7.7
2015-Jul-01 06:33N 38°02' W 122°08'0 0.0
2015-Jul-01 05:32N 38°02' W 122°08'5 4.8
2015-Jul-01 04:32N 38°04' W 122°14'1111.5
2015-Jul-01 03:33N 37°57' W 122°26'2 2.1
2015-Jul-01 02:33N 37°55' W 122°25'8 7.7
2015-Jul-01 01:33N 37°49' W 122°30'1 1.2
2015-Jul-01 00:33N 37°49' W 122°29'4 3.9
2015-Jun-30 23:33N 37°48' W 122°24'0 0.0
2015-Jun-30 22:33N 37°48' W 122°24'0 0.0
2015-Jun-30 21:33N 37°48' W 122°24'0 0.0
2015-Jun-30 20:33N 37°48' W 122°24'0 0.0
2015-Jun-30 19:33N 37°48' W 122°24'0 0.0
2015-Jun-30 18:33N 37°48' W 122°24'2 1.7
2015-Jun-30 17:33N 37°49' W 122°26'5 4.5
2015-Jun-30 16:33N 37°49' W 122°31'6 6.4
2015-Jun-30 15:33N 37°49' W 122°23'3 2.8
2015-Jun-30 14:33N 37°47' W 122°21'2 1.6
2015-Jun-30 13:33N 37°48' W 122°21'0 0.2
2015-Jun-30 12:33N 37°49' W 122°20'5 4.6
2015-Jun-30 11:33N 37°44' W 122°21'1 1.2
2015-Jun-30 10:33N 37°45' W 122°21'2 1.7
2015-Jun-30 09:33N 37°47' W 122°22'9 9.5
2015-Jun-30 08:33N 37°55' W 122°27'10 9.5
2015-Jun-30 07:33N 38°03' W 122°20'6 6.3
2015-Jun-30 06:32N 38°03' W 122°12'4 4.5
2015-Jun-30 05:33N 38°03' W 122°06'5 0.4
2015-Jun-29 18:20N 38°03' W 122°12'3 1.0
2015-Jun-29 15:19N 38°02' W 122°08'0 0.0
2015-Jun-29 00:25N 38°02' W 122°08'2 0.3
2015-Jun-28 15:23N 38°03' W 122°11'9 4.8
2015-Jun-28 13:27N 38°02' W 122°22'7 8.3
2015-Jun-28 12:33N 37°54' W 122°25'6 6.5
2015-Jun-28 11:33N 37°48' W 122°24'0 0.0
2015-Jun-28 10:33N 37°48' W 122°24'0 0.0
2015-Jun-28 09:33N 37°48' W 122°24'0 0.0
2015-Jun-28 08:33N 37°48' W 122°24'0 0.0
2015-Jun-28 07:33N 37°48' W 122°24'0 0.0
2015-Jun-28 06:33N 37°48' W 122°24'4 3.8
2015-Jun-28 05:33N 37°49' W 122°29'2 2.2
2015-Jun-28 04:33N 37°49' W 122°31'4 3.6
2015-Jun-28 03:33N 37°50' W 122°27'3 3.1
2015-Jun-28 02:33N 37°53' W 122°25'4 3.7
2015-Jun-28 01:33N 37°56' W 122°27'4 3.9
2015-Jun-28 00:33N 37°60' W 122°25'5 4.7
2015-Jun-27 23:33N 38°03' W 122°20'10 0.6
2015-Jun-27 07:31N 38°03' W 122°08'0 0.0
2015-Jun-27 04:33N 38°03' W 122°08'1 0.6
2015-Jun-27 03:33N 38°02' W 122°08'4 3.6
2015-Jun-27 02:33N 38°04' W 122°12'4 3.8
2015-Jun-27 01:32N 38°03' W 122°17'7 1.0
2015-Jun-26 18:32N 38°02' W 122°08'0 0.1
2015-Jun-26 15:19N 38°03' W 122°08'1 1.6
2015-Jun-26 14:24N 38°03' W 122°06'2 1.6
2015-Jun-26 13:21N 38°02' W 122°08'1 0.1
2015-Jun-26 06:23N 38°02' W 122°09'2 0.4
2015-Jun-26 01:08N 38°03' W 122°11'910.4
2015-Jun-26 00:17N 38°02' W 122°22'6 8.9
2015-Jun-25 23:33N 37°56' W 122°25'0 0.4
2015-Jun-25 22:33N 37°55' W 122°25'6 5.7
2015-Jun-25 21:33N 37°50' W 122°28'3 2.7
2015-Jun-25 20:33N 37°49' W 122°31'6 5.7
2015-Jun-25 19:33N 37°48' W 122°24'0 0.0
2015-Jun-25 18:33N 37°48' W 122°24'0 0.0
2015-Jun-25 17:34N 37°48' W 122°24'0 0.0
2015-Jun-25 16:33N 37°48' W 122°24'0 0.0
2015-Jun-25 15:33N 37°48' W 122°24'0 0.0
2015-Jun-25 14:33N 37°48' W 122°24'3 3.3
2015-Jun-25 13:33N 37°49' W 122°20'1 0.5
2015-Jun-25 12:33N 37°49' W 122°19'4 3.8
2015-Jun-25 11:33N 37°48' W 122°24'0 0.0
2015-Jun-25 10:33N 37°48' W 122°24'0 0.0
2015-Jun-25 09:33N 37°48' W 122°24'0 0.0
2015-Jun-25 08:33N 37°48' W 122°24'0 0.0
2015-Jun-25 07:33N 37°48' W 122°24'1 0.6
2015-Jun-25 06:33N 37°49' W 122°24'11 9.9
2015-Jun-25 05:27N 37°60' W 122°25'8 9.3
2015-Jun-25 04:33N 38°04' W 122°15'6 4.2
2015-Jun-25 03:07N 38°02' W 122°08'0 0.2
2015-Jun-25 01:32N 38°02' W 122°08'0 0.2
2015-Jun-25 00:30N 38°02' W 122°08'4 2.0
2015-Jun-24 22:33N 38°04' W 122°12'9 8.7
2015-Jun-24 21:33N 38°01' W 122°23'9 8.8
2015-Jun-24 20:34N 37°53' W 122°24'4 4.4
2015-Jun-24 19:33N 37°48' W 122°24'0 0.0
2015-Jun-24 18:33N 37°48' W 122°24'0 0.0
2015-Jun-24 17:33N 37°48' W 122°24'0 0.0
2015-Jun-24 16:33N 37°48' W 122°24'0 0.0
2015-Jun-24 15:34N 37°48' W 122°24'0 0.0
2015-Jun-24 14:33N 37°48' W 122°24'0 0.0
2015-Jun-24 13:33N 37°48' W 122°24'0 0.0
2015-Jun-24 12:33N 37°48' W 122°24'4 4.3
2015-Jun-24 11:33N 37°49' W 122°29'3 2.8
2015-Jun-24 10:33N 37°51' W 122°26'5 4.4
2015-Jun-24 09:27N 37°55' W 122°25'7 7.5
2015-Jun-24 08:33N 37°49' W 122°24'1 0.5
2015-Jun-24 07:33N 37°48' W 122°24'0 0.0
2015-Jun-24 06:33N 37°48' W 122°24'0 0.0
2015-Jun-24 05:33N 37°48' W 122°24'3 3.0
2015-Jun-24 04:34N 37°51' W 122°24'4 4.4
2015-Jun-24 03:33N 37°55' W 122°22'3 2.8
2015-Jun-24 02:31N 37°56' W 122°25'8 8.4
2015-Jun-24 01:33N 38°03' W 122°20'4 3.5
2015-Jun-24 00:32N 38°03' W 122°16'0 0.3
2015-Jun-23 23:33N 38°03' W 122°16'10 9.8
2015-Jun-23 22:33N 37°57' W 122°26'9 9.5
2015-Jun-23 21:33N 37°48' W 122°24'0 0.0
2015-Jun-23 20:33N 37°48' W 122°24'0 0.0
2015-Jun-23 19:34N 37°48' W 122°24'3 7.0
2015-Jun-23 19:06N 37°49' W 122°20'  

Dump ship's entire track history